METAR Data
IDs: Format: Raw Decoded Include TAF

Data at: 0149 UTC 21 Sep 2021

KHOU 210053Z 16011KT 10SM FEW035 30/24 A2987 RMK AO2 SLP118 T03000239
KHOU 202353Z 16011KT 10SM FEW038 32/24 A2986 RMK AO2 SLP114 T03170244 10350 20317 53002
KHOU 202253Z 14013KT 10SM SCT037 SCT049 33/24 A2985 RMK AO2 SLP111 T03280244
KHOU 202153Z 16012KT 10SM SCT041 SCT050 34/24 A2984 RMK AO2 SLP109 T03390239
KHOU 202053Z 20008KT 10SM SCT050 35/22 A2985 RMK AO2 SLP112 T03500217 56019
KHOU 201953Z 18007KT 10SM SCT045 35/22 A2987 RMK AO2 SLP118 T03500217